Time;durP1;ratioP1;P1;durP2;ratioP2;P2;SDS_P1;SDS_P2;PMS_P1;PMS_P2;Temp;Humidity;BMP_temperature;BMP_pressure;BME280_temperature;BME280_humidity;BME280_pressure;Samples;Min_cycle;Max_cycle;Signal;HPM_P1;HPM_P2
2021/09/13 00:00:01;;;;;;;13.88;10.75;;;;;;;;;;5000109;28;20050;-82
2021/09/13 00:02:30;;;;;;;14.10;10.77;;;;;;;;;;5000225;28;20386;-82
2021/09/13 00:04:58;;;;;;;14.57;11.07;;;;;;;;;;4998944;28;20089;-82
2021/09/13 00:07:25;;;;;;;14.02;10.32;;;;;;;;;;5000345;28;20046;-82
2021/09/13 00:09:52;;;;;;;26.90;19.05;;;;;;;;;;5001715;28;20109;-83
2021/09/13 00:12:19;;;;;;;26.92;20.23;;;;;;;;;;5002383;28;20066;-82
2021/09/13 00:14:46;;;;;;;17.58;12.55;;;;;;;;;;5002032;28;20053;-83
2021/09/13 00:17:13;;;;;;;13.80;10.43;;;;;;;;;;5002379;28;20110;-82
2021/09/13 00:19:39;;;;;;;15.20;10.73;;;;;;;;;;5003117;28;20054;-83
2021/09/13 00:22:08;;;;;;;15.27;10.88;;;;;;;;;;5010021;28;20085;-82
2021/09/13 00:24:35;;;;;;;13.80;10.38;;;;;;;;;;5012086;28;20069;-82
2021/09/13 00:27:02;;;;;;;14.65;10.77;;;;;;;;;;5012582;28;20077;-82
2021/09/13 00:29:28;;;;;;;13.00;10.40;;;;;;;;;;5011908;28;20461;-81
2021/09/13 00:31:55;;;;;;;12.50;10.13;;;;;;;;;;5011706;28;20555;-82
2021/09/13 00:34:22;;;;;;;17.10;11.73;;;;;;;;;;5011717;28;20061;-82
2021/09/13 00:36:49;;;;;;;13.60;10.38;;;;;;;;;;5011392;28;20070;-82
2021/09/13 00:39:17;;;;;;;14.95;11.82;;;;;;;;;;5004131;28;20058;-82
2021/09/13 00:41:43;;;;;;;13.80;10.77;;;;;;;;;;5002561;28;20105;-81
2021/09/13 00:44:10;;;;;;;15.20;11.15;;;;;;;;;;5002058;28;20050;-82
2021/09/13 00:46:37;;;;;;;13.45;10.50;;;;;;;;;;5002487;28;20053;-82
2021/09/13 00:49:04;;;;;;;13.80;10.32;;;;;;;;;;5002819;28;20050;-82
2021/09/13 00:51:31;;;;;;;13.57;10.30;;;;;;;;;;5003508;28;20042;-82
2021/09/13 00:53:57;;;;;;;15.32;12.32;;;;;;;;;;5003051;28;20109;-82
2021/09/13 00:56:26;;;;;;;15.27;11.32;;;;;;;;;;5003480;28;20050;-82
2021/09/13 00:58:53;;;;;;;15.07;10.88;;;;;;;;;;5003217;28;20046;-82
2021/09/13 01:01:20;;;;;;;13.82;10.25;;;;;;;;;;5002546;28;20050;-82
2021/09/13 01:03:47;;;;;;;13.77;10.77;;;;;;;;;;5001696;28;20097;-82
2021/09/13 01:06:14;;;;;;;14.50;10.40;;;;;;;;;;5002351;28;20046;-82
2021/09/13 01:08:42;;;;;;;13.18;10.27;;;;;;;;;;5002781;28;20050;-82
2021/09/13 01:11:09;;;;;;;14.02;10.70;;;;;;;;;;5002035;28;20430;-83
2021/09/13 01:13:37;;;;;;;15.18;11.80;;;;;;;;;;5002262;28;20101;-82
2021/09/13 01:16:05;;;;;;;15.20;10.55;;;;;;;;;;5002230;28;20501;-83
2021/09/13 01:18:32;;;;;;;12.90;10.27;;;;;;;;;;5003341;28;20046;-82
2021/09/13 01:21:00;;;;;;;14.30;10.50;;;;;;;;;;5006014;28;20050;-82
2021/09/13 01:23:28;;;;;;;15.10;11.57;;;;;;;;;;5005720;28;20055;-82
2021/09/13 01:25:55;;;;;;;14.15;10.38;;;;;;;;;;5006336;28;20042;-82
2021/09/13 01:28:22;;;;;;;15.35;10.30;;;;;;;;;;5006510;28;20046;-83
2021/09/13 01:30:49;;;;;;;14.30;10.10;;;;;;;;;;5003565;28;20488;-83
2021/09/13 01:33:16;;;;;;;13.25;10.77;;;;;;;;;;5003015;28;20042;-83
2021/09/13 01:35:42;;;;;;;13.95;11.60;;;;;;;;;;5003136;28;20046;-83
2021/09/13 01:38:09;;;;;;;15.75;10.70;;;;;;;;;;5001743;28;20105;-83
2021/09/13 01:40:37;;;;;;;13.80;10.70;;;;;;;;;;4998623;28;20073;-83
2021/09/13 01:43:04;;;;;;;14.25;11.15;;;;;;;;;;5000891;28;20043;-82
2021/09/13 01:45:31;;;;;;;13.55;9.93;;;;;;;;;;5003246;28;20100;-81
2021/09/13 01:47:58;;;;;;;14.13;10.57;;;;;;;;;;5004023;28;20077;-83
2021/09/13 01:50:25;;;;;;;15.93;12.45;;;;;;;;;;5001063;28;20137;-83
2021/09/13 01:52:51;;;;;;;14.55;10.85;;;;;;;;;;4998968;28;20105;-83
2021/09/13 01:55:18;;;;;;;13.90;10.60;;;;;;;;;;4998828;28;20050;-83
2021/09/13 01:57:46;;;;;;;14.75;11.40;;;;;;;;;;5012907;22;20230;-78
2021/09/13 02:00:15;;;;;;;15.05;10.73;;;;;;;;;;5034156;28;20080;-79
2021/09/13 02:02:42;;;;;;;15.80;11.30;;;;;;;;;;5028510;28;20104;-78
2021/09/13 02:05:10;;;;;;;15.88;11.82;;;;;;;;;;5014384;28;20069;-79
2021/09/13 02:07:36;;;;;;;14.13;10.48;;;;;;;;;;5014533;28;20050;-79
2021/09/13 02:10:04;;;;;;;15.23;11.68;;;;;;;;;;5015579;28;20124;-77
2021/09/13 02:12:31;;;;;;;15.48;11.55;;;;;;;;;;5014510;28;20104;-79
2021/09/13 02:15:00;;;;;;;13.32;10.32;;;;;;;;;;5032958;28;20045;-81
2021/09/13 02:17:26;;;;;;;14.73;10.90;;;;;;;;;;5034237;28;20433;-79
2021/09/13 02:19:53;;;;;;;13.38;10.40;;;;;;;;;;5034759;28;20443;-78
2021/09/13 02:22:20;;;;;;;14.77;11.30;;;;;;;;;;5037738;28;20096;-78
2021/09/13 02:24:47;;;;;;;14.50;11.02;;;;;;;;;;5035680;28;20104;-78
2021/09/13 02:27:13;;;;;;;15.48;11.18;;;;;;;;;;5035957;28;20041;-78
2021/09/13 02:29:40;;;;;;;15.20;11.15;;;;;;;;;;5037178;28;20049;-78
2021/09/13 02:32:09;;;;;;;14.85;11.32;;;;;;;;;;5042756;28;20663;-78
2021/09/13 02:34:36;;;;;;;14.85;12.38;;;;;;;;;;5042465;28;20397;-77
2021/09/13 02:37:02;;;;;;;15.10;11.10;;;;;;;;;;5043126;28;20459;-78
2021/09/13 02:39:29;;;;;;;16.45;11.38;;;;;;;;;;5042666;28;20653;-77
2021/09/13 02:41:56;;;;;;;14.73;11.02;;;;;;;;;;5043466;28;20415;-78
2021/09/13 02:44:23;;;;;;;15.43;11.60;;;;;;;;;;5048187;28;20045;-77
2021/09/13 02:46:50;;;;;;;17.20;10.93;;;;;;;;;;5046802;28;20079;-78
2021/09/13 02:49:18;;;;;;;14.38;11.10;;;;;;;;;;5043385;28;20053;-78
2021/09/13 02:51:44;;;;;;;15.18;11.48;;;;;;;;;;5043720;28;20103;-78
2021/09/13 02:54:12;;;;;;;16.00;12.43;;;;;;;;;;5043938;28;20046;-78
2021/09/13 02:56:39;;;;;;;17.05;11.85;;;;;;;;;;5043182;28;20051;-78
2021/09/13 02:59:06;;;;;;;15.02;11.52;;;;;;;;;;5042497;28;20054;-78
2021/09/13 03:01:32;;;;;;;16.23;12.32;;;;;;;;;;5042977;28;20045;-77
2021/09/13 03:03:59;;;;;;;17.65;11.75;;;;;;;;;;5043177;28;20041;-77
2021/09/13 03:06:28;;;;;;;15.38;11.63;;;;;;;;;;5042187;28;20053;-78
2021/09/13 03:08:54;;;;;;;16.40;12.15;;;;;;;;;;5042085;28;20054;-78
2021/09/13 03:11:23;;;;;;;14.77;11.50;;;;;;;;;;5042389;28;20440;-78
2021/09/13 03:13:49;;;;;;;15.98;12.57;;;;;;;;;;5033247;28;20073;-78
2021/09/13 03:16:16;;;;;;;14.70;12.02;;;;;;;;;;5023083;28;20050;-78
2021/09/13 03:18:43;;;;;;;17.35;12.15;;;;;;;;;;5022742;28;20072;-77
2021/09/13 03:21:10;;;;;;;15.75;12.52;;;;;;;;;;5022889;28;20061;-78
2021/09/13 03:23:38;;;;;;;17.83;12.68;;;;;;;;;;5021970;28;20109;-78
2021/09/13 03:26:05;;;;;;;15.68;12.88;;;;;;;;;;5017540;28;20046;-77
2021/09/13 03:28:34;;;;;;;16.55;13.13;;;;;;;;;;5016616;28;20120;-77
2021/09/13 03:31:01;;;;;;;17.55;12.07;;;;;;;;;;5017169;28;20124;-77
2021/09/13 03:33:27;;;;;;;16.05;11.77;;;;;;;;;;5018893;28;20050;-77
2021/09/13 03:35:54;;;;;;;16.15;12.20;;;;;;;;;;5024638;28;20066;-79
2021/09/13 03:38:21;;;;;;;15.73;11.85;;;;;;;;;;5024092;28;20096;-77
2021/09/13 03:40:49;;;;;;;16.73;12.05;;;;;;;;;;5023655;28;20054;-77
2021/09/13 03:43:16;;;;;;;16.48;12.35;;;;;;;;;;5033550;28;20069;-78
2021/09/13 03:45:43;;;;;;;16.38;12.32;;;;;;;;;;5020776;28;20389;-78
2021/09/13 03:48:10;;;;;;;14.32;11.38;;;;;;;;;;5018247;28;20104;-78
2021/09/13 03:50:36;;;;;;;14.18;11.25;;;;;;;;;;5016610;28;20049;-78
2021/09/13 03:53:04;;;;;;;17.35;11.10;;;;;;;;;;5015264;28;20096;-77
2021/09/13 03:55:32;;;;;;;16.30;11.65;;;;;;;;;;5014948;28;20053;-77
2021/09/13 03:58:00;;;;;;;15.10;11.55;;;;;;;;;;5014901;28;20053;-77
2021/09/13 04:00:27;;;;;;;16.92;12.50;;;;;;;;;;5015487;28;20050;-77
2021/09/13 04:02:53;;;;;;;16.30;11.77;;;;;;;;;;5016865;28;20440;-79
2021/09/13 04:05:22;;;;;;;15.68;12.30;;;;;;;;;;5017032;28;20144;-79
2021/09/13 04:10:37;;;;;;;18.85;13.07;;;;;;;;;;5015067;28;20382;-77
2021/09/13 04:13:06;;;;;;;18.67;12.75;;;;;;;;;;5018411;28;20050;-78
2021/09/13 04:15:32;;;;;;;18.08;13.88;;;;;;;;;;5021902;28;20050;-78
2021/09/13 04:17:59;;;;;;;17.42;12.48;;;;;;;;;;5020999;28;20450;-78
2021/09/13 04:20:26;;;;;;;19.52;14.60;;;;;;;;;;5021212;28;20054;-78
2021/09/13 04:22:53;;;;;;;18.48;13.63;;;;;;;;;;5021109;28;20099;-78
2021/09/13 04:25:19;;;;;;;17.90;13.73;;;;;;;;;;5021223;28;20050;-77
2021/09/13 04:27:46;;;;;;;19.67;14.40;;;;;;;;;;5021692;28;20456;-77
2021/09/13 04:30:14;;;;;;;20.27;14.57;;;;;;;;;;5026046;28;20080;-77
2021/09/13 04:32:41;;;;;;;19.00;13.73;;;;;;;;;;5025945;28;20053;-78
2021/09/13 04:35:09;;;;;;;18.77;13.85;;;;;;;;;;5025169;28;20117;-80
2021/09/13 04:37:35;;;;;;;17.98;13.75;;;;;;;;;;5023310;28;20464;-79
2021/09/13 04:40:02;;;;;;;21.73;16.65;;;;;;;;;;5023442;28;20046;-79
2021/09/13 04:42:30;;;;;;;20.55;14.93;;;;;;;;;;5022530;28;20042;-78
2021/09/13 04:44:56;;;;;;;19.58;13.73;;;;;;;;;;5021913;28;20100;-78
2021/09/13 04:47:25;;;;;;;18.52;14.18;;;;;;;;;;5021008;28;20046;-78
2021/09/13 04:49:52;;;;;;;16.38;12.65;;;;;;;;;;5021408;28;20481;-79
2021/09/13 04:52:19;;;;;;;16.80;12.18;;;;;;;;;;5022407;28;20050;-79
2021/09/13 04:54:45;;;;;;;21.67;14.88;;;;;;;;;;5021285;28;20049;-77
2021/09/13 04:57:12;;;;;;;20.50;13.32;;;;;;;;;;5021539;28;20076;-78
2021/09/13 04:59:39;;;;;;;17.33;12.50;;;;;;;;;;5021062;28;20046;-78
2021/09/13 05:02:06;;;;;;;21.30;13.77;;;;;;;;;;5020836;28;20493;-79
2021/09/13 05:04:34;;;;;;;20.00;14.38;;;;;;;;;;5019851;28;20446;-78
2021/09/13 05:07:02;;;;;;;16.95;13.18;;;;;;;;;;5020055;28;20046;-78
2021/09/13 05:09:28;;;;;;;17.30;12.75;;;;;;;;;;5014071;28;20489;-78
2021/09/13 05:11:55;;;;;;;24.55;14.32;;;;;;;;;;5014280;28;20100;-78
2021/09/13 05:14:22;;;;;;;18.70;12.93;;;;;;;;;;5023800;28;20046;-76
2021/09/13 05:16:49;;;;;;;17.33;13.70;;;;;;;;;;5022668;28;20046;-78
2021/09/13 05:19:15;;;;;;;17.40;14.02;;;;;;;;;;5015577;28;20096;-78
2021/09/13 05:21:44;;;;;;;19.08;13.18;;;;;;;;;;5015363;28;20468;-76
2021/09/13 05:24:10;;;;;;;19.98;13.20;;;;;;;;;;5014340;28;20046;-78
2021/09/13 05:26:39;;;;;;;19.23;13.27;;;;;;;;;;5014810;28;20054;-78
2021/09/13 05:29:06;;;;;;;23.77;14.90;;;;;;;;;;5022059;28;20041;-79
2021/09/13 05:31:33;;;;;;;21.90;13.68;;;;;;;;;;5021270;28;20045;-78
2021/09/13 05:34:00;;;;;;;24.00;14.35;;;;;;;;;;5017950;28;20128;-79
2021/09/13 05:36:26;;;;;;;20.65;14.20;;;;;;;;;;5015403;28;20054;-78
2021/09/13 05:38:55;;;;;;;23.45;13.93;;;;;;;;;;5014839;28;20108;-79
2021/09/13 05:41:21;;;;;;;20.83;13.05;;;;;;;;;;5014490;28;20109;-79
2021/09/13 05:43:48;;;;;;;23.60;13.77;;;;;;;;;;5014925;28;20116;-79
2021/09/13 05:46:15;;;;;;;23.58;13.93;;;;;;;;;;5014614;28;20046;-78
2021/09/13 05:48:42;;;;;;;19.17;12.88;;;;;;;;;;5014316;28;20052;-78
2021/09/13 05:51:08;;;;;;;22.30;14.20;;;;;;;;;;5014237;28;20045;-79
2021/09/13 05:53:35;;;;;;;22.02;13.48;;;;;;;;;;5012881;28;20144;-77
2021/09/13 05:56:04;;;;;;;22.60;14.18;;;;;;;;;;5013957;28;20050;-78
2021/09/13 05:58:30;;;;;;;18.38;12.48;;;;;;;;;;5014469;28;20500;-79
2021/09/13 06:00:57;;;;;;;20.38;13.27;;;;;;;;;;5014512;28;20050;-78
2021/09/13 06:03:27;;;;;;;18.98;11.63;;;;;;;;;;5014000;28;20073;-81
2021/09/13 06:05:54;;;;;;;19.77;13.65;;;;;;;;;;5016760;28;20049;-77
2021/09/13 06:08:21;;;;;;;18.73;12.70;;;;;;;;;;5020151;28;20050;-79
2021/09/13 06:10:48;;;;;;;19.05;13.45;;;;;;;;;;5015021;28;20081;-80
2021/09/13 06:13:16;;;;;;;17.65;12.35;;;;;;;;;;5020366;28;20104;-80
2021/09/13 06:15:43;;;;;;;21.83;15.02;;;;;;;;;;5035688;28;20049;-79
2021/09/13 06:18:11;;;;;;;21.27;15.55;;;;;;;;;;5036401;28;20136;-80
2021/09/13 06:20:38;;;;;;;17.55;12.75;;;;;;;;;;5035873;28;20562;-79
2021/09/13 06:23:05;;;;;;;21.55;13.73;;;;;;;;;;5033992;28;20148;-79
2021/09/13 06:25:32;;;;;;;20.13;13.95;;;;;;;;;;5034345;28;20050;-79
2021/09/13 06:27:59;;;;;;;20.02;14.50;;;;;;;;;;5037125;28;20045;-79
2021/09/13 06:30:27;;;;;;;23.90;15.27;;;;;;;;;;5036785;28;20045;-79
2021/09/13 06:32:54;;;;;;;20.08;15.52;;;;;;;;;;5035566;28;20114;-79
2021/09/13 06:35:23;;;;;;;27.25;15.25;;;;;;;;;;5036770;28;20046;-80
2021/09/13 06:37:50;;;;;;;20.40;14.93;;;;;;;;;;5036204;28;20050;-79
2021/09/13 06:40:17;;;;;;;19.15;13.65;;;;;;;;;;5036142;28;20107;-77
2021/09/13 06:42:44;;;;;;;23.20;15.30;;;;;;;;;;5035311;28;20058;-79
2021/09/13 06:45:17;;;;;;;21.70;15.93;;;;;;;;;;5036713;28;20053;-79
2021/09/13 06:47:45;;;;;;;23.98;15.80;;;;;;;;;;5036926;28;20056;-79
2021/09/13 06:50:16;;;;;;;23.63;15.68;;;;;;;;;;5036964;28;20049;-79
2021/09/13 06:52:43;;;;;;;24.92;17.33;;;;;;;;;;5037231;28;20555;-79
2021/09/13 06:55:10;;;;;;;28.48;17.27;;;;;;;;;;5037496;28;20045;-79
2021/09/13 06:57:38;;;;;;;26.83;18.95;;;;;;;;;;5036867;28;20412;-79
2021/09/13 07:00:09;;;;;;;25.83;18.20;;;;;;;;;;5037631;28;20049;-79
2021/09/13 07:02:38;;;;;;;29.02;19.77;;;;;;;;;;5032581;28;20108;-79
2021/09/13 07:05:08;;;;;;;30.52;21.92;;;;;;;;;;5017175;28;20057;-79
2021/09/13 07:07:35;;;;;;;26.70;18.05;;;;;;;;;;5017177;28;20416;-79
2021/09/13 07:10:02;;;;;;;24.70;18.48;;;;;;;;;;5016584;28;20113;-79
2021/09/13 07:12:28;;;;;;;30.00;21.02;;;;;;;;;;5016023;28;20042;-77
2021/09/13 07:14:55;;;;;;;30.23;18.73;;;;;;;;;;5021529;28;20046;-79
2021/09/13 07:17:22;;;;;;;29.58;21.30;;;;;;;;;;5020154;28;20128;-77
2021/09/13 07:19:51;;;;;;;25.08;18.52;;;;;;;;;;5015523;28;20448;-78
2021/09/13 07:22:19;;;;;;;26.15;18.73;;;;;;;;;;5016370;28;20130;-78
2021/09/13 07:24:46;;;;;;;28.27;19.45;;;;;;;;;;5020403;28;20107;-77
2021/09/13 07:27:13;;;;;;;31.55;20.85;;;;;;;;;;5022929;28;20485;-77
2021/09/13 07:29:41;;;;;;;25.88;16.98;;;;;;;;;;5022824;28;20046;-77
2021/09/13 07:32:08;;;;;;;31.98;20.85;;;;;;;;;;5019647;28;20046;-76
2021/09/13 07:34:35;;;;;;;29.33;18.52;;;;;;;;;;5017050;28;20104;-79
2021/09/13 07:37:02;;;;;;;25.90;17.65;;;;;;;;;;5016468;28;20088;-77
2021/09/13 07:39:31;;;;;;;26.30;17.77;;;;;;;;;;5016608;28;20053;-78
2021/09/13 07:41:59;;;;;;;24.95;15.90;;;;;;;;;;5028503;28;20064;-79
2021/09/13 07:44:26;;;;;;;23.90;16.77;;;;;;;;;;5050323;28;20061;-78
2021/09/13 07:46:53;;;;;;;30.92;18.10;;;;;;;;;;5050931;28;20064;-78
2021/09/13 07:49:21;;;;;;;29.33;19.83;;;;;;;;;;5046350;28;20475;-78
2021/09/13 07:51:48;;;;;;;39.10;25.38;;;;;;;;;;5043126;28;20041;-79
2021/09/13 07:54:15;;;;;;;37.72;26.40;;;;;;;;;;5025271;28;20042;-79
2021/09/13 07:56:43;;;;;;;24.95;17.17;;;;;;;;;;5024431;28;20488;-78
2021/09/13 07:59:10;;;;;;;22.17;17.15;;;;;;;;;;5024105;28;20057;-80
2021/09/13 08:01:37;;;;;;;23.08;17.27;;;;;;;;;;5024784;28;20104;-79
2021/09/13 08:04:04;;;;;;;27.95;19.45;;;;;;;;;;5024253;28;20046;-79
2021/09/13 08:06:31;;;;;;;23.10;15.98;;;;;;;;;;5023807;28;20050;-79
2021/09/13 08:08:58;;;;;;;22.92;14.13;;;;;;;;;;5037772;22;20060;-84
2021/09/13 08:11:26;;;;;;;23.17;15.98;;;;;;;;;;5042031;28;20159;-82
2021/09/13 08:13:54;;;;;;;20.25;15.48;;;;;;;;;;5041899;28;20451;-81
2021/09/13 08:16:23;;;;;;;18.08;11.68;;;;;;;;;;5043634;28;20049;-82
2021/09/13 08:18:50;;;;;;;26.48;19.20;;;;;;;;;;5035231;28;20048;-82
2021/09/13 08:21:19;;;;;;;19.45;15.18;;;;;;;;;;5022540;28;20072;-82
2021/09/13 08:24:16;;;;;;;15.23;10.73;;;;;;;;;;5022443;28;20050;-82
2021/09/13 08:26:44;;;;;;;14.30;9.73;;;;;;;;;;5012282;28;20045;-83
2021/09/13 08:29:14;;;;;;;16.20;10.43;;;;;;;;;;5021977;28;20061;-84
2021/09/13 08:31:41;;;;;;;16.23;9.45;;;;;;;;;;5021017;28;20053;-83
2021/09/13 08:34:08;;;;;;;23.48;13.77;;;;;;;;;;5020227;28;20046;-83
2021/09/13 08:36:35;;;;;;;27.10;14.93;;;;;;;;;;5016372;28;20603;-84
2021/09/13 08:39:02;;;;;;;18.85;11.75;;;;;;;;;;5018584;28;20050;-83
2021/09/13 08:41:29;;;;;;;14.10;10.23;;;;;;;;;;5015896;28;20441;-83
2021/09/13 08:43:57;;;;;;;18.40;11.48;;;;;;;;;;5017102;28;20508;-83
2021/09/13 08:46:35;;;;;;;15.77;9.32;;;;;;;;;;5019528;28;20050;-82
2021/09/13 08:49:05;;;;;;;15.73;12.43;;;;;;;;;;5022226;28;20049;-82
2021/09/13 08:51:32;;;;;;;14.63;9.88;;;;;;;;;;5023460;28;20065;-84
2021/09/13 08:54:08;;;;;;;13.75;10.05;;;;;;;;;;5020532;28;20056;-86
2021/09/13 08:56:39;;;;;;;16.25;11.00;;;;;;;;;;5021879;28;20500;-84
2021/09/13 08:59:07;;;;;;;15.75;10.88;;;;;;;;;;5019430;28;20062;-82
2021/09/13 09:01:35;;;;;;;12.70;9.25;;;;;;;;;;5023367;28;20050;-82
2021/09/13 09:04:03;;;;;;;13.52;10.35;;;;;;;;;;5020768;28;20555;-83
2021/09/13 09:06:32;;;;;;;12.82;9.10;;;;;;;;;;5022015;28;20057;-81
2021/09/13 09:09:01;;;;;;;11.90;8.18;;;;;;;;;;5021234;28;20046;-83
2021/09/13 09:11:50;;;;;;;12.70;9.00;;;;;;;;;;5021377;28;20081;-81
2021/09/13 09:14:39;;;;;;;14.40;8.93;;;;;;;;;;5022236;28;20046;-80
2021/09/13 09:17:09;;;;;;;11.70;7.82;;;;;;;;;;5020193;28;20071;-83
2021/09/13 09:19:37;;;;;;;13.65;9.32;;;;;;;;;;5020406;28;20050;-83
2021/09/13 09:22:21;;;;;;;12.88;8.98;;;;;;;;;;5020301;28;20046;-83
2021/09/13 09:24:49;;;;;;;11.77;8.52;;;;;;;;;;5017140;28;20050;-83
2021/09/13 09:27:16;;;;;;;15.73;10.38;;;;;;;;;;5021494;28;20077;-83
2021/09/13 09:29:43;;;;;;;11.73;7.90;;;;;;;;;;5019222;28;20045;-84
2021/09/13 09:32:20;;;;;;;9.77;7.25;;;;;;;;;;5023120;28;20048;-83
2021/09/13 09:34:47;;;;;;;11.02;8.27;;;;;;;;;;5025274;28;20065;-83
2021/09/13 09:37:14;;;;;;;12.50;8.43;;;;;;;;;;5026286;28;20050;-83
2021/09/13 09:39:44;;;;;;;12.65;8.48;;;;;;;;;;5027628;28;20046;-84
2021/09/13 09:42:13;;;;;;;11.30;8.00;;;;;;;;;;5027586;28;20056;-83
2021/09/13 09:44:44;;;;;;;10.52;7.10;;;;;;;;;;5027914;28;20081;-82
2021/09/13 09:47:13;;;;;;;10.02;7.15;;;;;;;;;;5025732;28;20069;-81
2021/09/13 09:49:51;;;;;;;11.15;7.70;;;;;;;;;;5025828;28;20046;-80
2021/09/13 09:52:33;;;;;;;12.95;8.00;;;;;;;;;;5032299;28;20069;-82
2021/09/13 09:55:11;;;;;;;12.48;7.47;;;;;;;;;;5034347;28;20068;-84
2021/09/13 09:57:38;;;;;;;11.27;7.68;;;;;;;;;;5036488;28;20034;-84
2021/09/13 10:00:24;;;;;;;13.88;7.88;;;;;;;;;;5036585;28;20042;-82
2021/09/13 10:02:53;;;;;;;10.02;6.70;;;;;;;;;;5035046;28;20062;-81
2021/09/13 10:05:21;;;;;;;10.02;7.05;;;;;;;;;;5030086;28;20069;-83
2021/09/13 10:07:50;;;;;;;11.27;7.30;;;;;;;;;;5028229;28;20056;-83
2021/09/13 10:10:18;;;;;;;9.88;7.75;;;;;;;;;;5026426;28;20080;-82
2021/09/13 10:12:44;;;;;;;10.35;7.55;;;;;;;;;;5027445;28;20054;-81
2021/09/13 10:15:13;;;;;;;10.13;7.78;;;;;;;;;;5027960;28;20471;-82
2021/09/13 10:17:40;;;;;;;10.65;7.15;;;;;;;;;;5028373;28;20455;-81
2021/09/13 10:20:10;;;;;;;10.32;7.38;;;;;;;;;;5031336;28;20064;-82
2021/09/13 10:22:42;;;;;;;10.05;7.20;;;;;;;;;;5031971;28;20054;-82
2021/09/13 10:25:12;;;;;;;9.35;7.63;;;;;;;;;;5031117;28;20141;-82
2021/09/13 10:27:41;;;;;;;14.85;9.30;;;;;;;;;;5032490;28;20128;-82
2021/09/13 10:30:13;;;;;;;11.55;8.38;;;;;;;;;;5032794;28;20046;-84
2021/09/13 10:32:43;;;;;;;10.30;7.68;;;;;;;;;;5032354;28;20459;-84
2021/09/13 10:35:26;;;;;;;14.23;11.80;;;;;;;;;;5031105;28;20050;-84
2021/09/13 10:37:55;;;;;;;12.85;9.00;;;;;;;;;;5027689;28;20062;-82
2021/09/13 10:40:32;;;;;;;12.18;9.68;;;;;;;;;;5026380;28;20069;-82
2021/09/13 10:43:18;;;;;;;14.45;9.23;;;;;;;;;;5021859;28;20111;-84
2021/09/13 10:45:45;;;;;;;14.02;9.57;;;;;;;;;;5019060;28;20050;-83
2021/09/13 10:48:16;;;;;;;15.07;10.38;;;;;;;;;;5019198;28;20489;-81
2021/09/13 10:50:47;;;;;;;14.77;9.95;;;;;;;;;;5020334;28;20056;-82
2021/09/13 10:53:40;;;;;;;12.25;9.30;;;;;;;;;;5020687;28;20046;-82
2021/09/13 10:56:21;;;;;;;14.48;9.15;;;;;;;;;;5021284;28;20085;-82
2021/09/13 10:58:50;;;;;;;11.70;8.77;;;;;;;;;;5020848;28;20056;-82
2021/09/13 11:01:26;;;;;;;13.50;8.93;;;;;;;;;;5020390;28;20053;-83
2021/09/13 11:03:55;;;;;;;17.40;10.75;;;;;;;;;;5020540;28;20069;-83
2021/09/13 11:06:41;;;;;;;13.38;9.23;;;;;;;;;;5019898;28;20054;-82
2021/09/13 11:09:21;;;;;;;11.90;8.50;;;;;;;;;;5020613;28;20081;-83
2021/09/13 11:11:56;;;;;;;11.35;8.32;;;;;;;;;;5021642;28;20053;-82
2021/09/13 11:14:26;;;;;;;10.88;8.25;;;;;;;;;;5020434;28;20081;-82
2021/09/13 11:16:55;;;;;;;11.20;7.93;;;;;;;;;;5020692;28;20042;-82
2021/09/13 11:19:24;;;;;;;11.93;9.07;;;;;;;;;;5020279;28;20056;-81
2021/09/13 11:21:54;;;;;;;13.57;8.00;;;;;;;;;;5020108;28;20132;-83
2021/09/13 11:24:24;;;;;;;;;;;;;;;;;;5020525;28;20076;-81
2021/09/13 11:26:53;;;;;;;12.43;9.25;;;;;;;;;;5021066;28;19983;-82
2021/09/13 11:29:24;;;;;;;12.63;9.05;;;;;;;;;;5019699;28;20049;-81
2021/09/13 11:31:53;;;;;;;12.30;8.70;;;;;;;;;;5022072;28;20042;-81
2021/09/13 11:34:32;;;;;;;10.05;7.38;;;;;;;;;;5020110;28;20420;-82
2021/09/13 11:37:06;;;;;;;9.98;7.75;;;;;;;;;;5019614;28;20405;-82
2021/09/13 11:39:35;;;;;;;11.23;8.20;;;;;;;;;;5023142;28;20080;-82
2021/09/13 11:42:06;;;;;;;10.55;8.20;;;;;;;;;;5025692;28;20123;-82
2021/09/13 11:44:40;;;;;;;10.45;8.23;;;;;;;;;;5020955;28;20061;-82
2021/09/13 11:47:07;;;;;;;10.18;7.57;;;;;;;;;;5019458;28;20049;-82
2021/09/13 11:49:35;;;;;;;11.95;9.50;;;;;;;;;;5018693;28;20045;-82
2021/09/13 11:52:22;;;;;;;11.60;8.93;;;;;;;;;;5019564;28;20084;-82
2021/09/13 11:54:52;;;;;;;14.73;8.50;;;;;;;;;;5024060;28;20100;-82
2021/09/13 11:57:33;;;;;;;13.83;9.17;;;;;;;;;;5018572;28;20100;-83
2021/09/13 12:00:01;;;;;;;13.18;9.25;;;;;;;;;;5018712;28;20287;-82
2021/09/13 12:02:30;;;;;;;12.25;7.35;;;;;;;;;;5019302;28;20097;-83
2021/09/13 12:04:59;;;;;;;11.82;8.15;;;;;;;;;;5018516;28;20073;-83
2021/09/13 12:07:27;;;;;;;12.40;8.93;;;;;;;;;;5019064;28;20054;-82
2021/09/13 12:09:57;;;;;;;11.45;8.18;;;;;;;;;;5021191;28;20053;-86
2021/09/13 12:12:26;;;;;;;13.20;8.48;;;;;;;;;;5020533;28;20054;-81
2021/09/13 12:14:55;;;;;;;9.50;7.53;;;;;;;;;;5020826;28;20081;-82
2021/09/13 12:17:24;;;;;;;9.97;8.43;;;;;;;;;;5022738;28;20303;-83
2021/09/13 12:20:12;;;;;;;11.20;8.98;;;;;;;;;;5024576;28;20132;-83
2021/09/13 12:22:40;;;;;;;11.05;8.10;;;;;;;;;;5021411;28;20065;-82
2021/09/13 12:25:13;;;;;;;11.48;8.18;;;;;;;;;;5021427;28;20056;-82
2021/09/13 12:27:42;;;;;;;11.88;8.77;;;;;;;;;;5021870;28;20528;-82
2021/09/13 12:30:17;;;;;;;11.97;8.10;;;;;;;;;;5023505;28;20057;-84
2021/09/13 12:32:54;;;;;;;10.43;7.65;;;;;;;;;;5024235;28;20046;-83
2021/09/13 12:35:32;;;;;;;10.35;7.50;;;;;;;;;;5023038;28;20058;-83
2021/09/13 12:38:00;;;;;;;9.68;7.13;;;;;;;;;;5025503;28;20053;-84
2021/09/13 12:40:28;;;;;;;10.52;8.45;;;;;;;;;;5027109;28;20054;-83
2021/09/13 12:42:57;;;;;;;8.85;7.00;;;;;;;;;;5025348;28;20056;-83
2021/09/13 12:45:26;;;;;;;11.57;7.88;;;;;;;;;;5023116;28;20433;-83
2021/09/13 12:47:54;;;;;;;10.18;7.72;;;;;;;;;;5023073;28;20049;-83
2021/09/13 12:50:30;;;;;;;11.05;7.00;;;;;;;;;;5026855;28;20058;-83
2021/09/13 12:52:58;;;;;;;10.82;7.63;;;;;;;;;;5020047;28;20046;-83
2021/09/13 12:55:28;;;;;;;12.23;8.10;;;;;;;;;;5019471;28;20138;-84
2021/09/13 12:57:55;;;;;;;11.77;8.05;;;;;;;;;;5020475;28;20180;-84
2021/09/13 13:00:22;;;;;;;8.52;6.97;;;;;;;;;;5021049;28;20050;-86
2021/09/13 13:03:13;;;;;;;11.05;7.88;;;;;;;;;;5018567;28;20053;-83
2021/09/13 13:05:47;;;;;;;9.02;6.82;;;;;;;;;;5019827;28;20081;-83
2021/09/13 13:08:14;;;;;;;11.02;7.72;;;;;;;;;;5019575;28;20065;-83
2021/09/13 13:10:43;;;;;;;9.98;7.90;;;;;;;;;;5020649;28;20046;-83
2021/09/13 13:13:10;;;;;;;9.85;6.95;;;;;;;;;;5020443;28;20056;-83
2021/09/13 13:15:37;;;;;;;10.43;7.43;;;;;;;;;;5026521;28;20042;-84
2021/09/13 13:18:10;;;;;;;11.32;9.32;;;;;;;;;;5036912;28;20050;-84
2021/09/13 13:20:37;;;;;;;11.10;7.20;;;;;;;;;;5037103;28;20058;-82
2021/09/13 13:23:04;;;;;;;10.75;7.80;;;;;;;;;;5037449;28;20057;-83
2021/09/13 13:25:31;;;;;;;12.98;8.00;;;;;;;;;;5031802;28;20053;-84
2021/09/13 13:28:00;;;;;;;16.38;12.68;;;;;;;;;;5024250;28;20056;-82
2021/09/13 13:30:28;;;;;;;10.60;7.85;;;;;;;;;;5019718;28;20053;-83
2021/09/13 13:32:55;;;;;;;13.68;10.18;;;;;;;;;;5019097;28;20049;-84
2021/09/13 13:35:22;;;;;;;11.95;8.70;;;;;;;;;;5017594;28;20061;-84
2021/09/13 13:37:49;;;;;;;11.88;8.30;;;;;;;;;;5020939;28;20053;-83
2021/09/13 13:40:16;;;;;;;8.65;6.45;;;;;;;;;;5021850;28;20050;-83
2021/09/13 13:42:43;;;;;;;10.18;7.35;;;;;;;;;;5020913;28;20045;-84
2021/09/13 13:45:12;;;;;;;8.10;6.20;;;;;;;;;;5015361;28;20061;-84
2021/09/13 13:47:42;;;;;;;8.77;7.00;;;;;;;;;;5016526;28;20056;-84
2021/09/13 13:50:11;;;;;;;10.38;7.40;;;;;;;;;;5016134;28;20291;-84
2021/09/13 13:52:39;;;;;;;11.18;8.38;;;;;;;;;;5016636;28;20053;-84
2021/09/13 13:55:07;;;;;;;10.77;7.60;;;;;;;;;;5017791;28;20049;-84
2021/09/13 13:57:34;;;;;;;9.90;7.20;;;;;;;;;;5019092;28;20057;-85
2021/09/13 14:00:01;;;;;;;9.25;7.68;;;;;;;;;;5019864;28;20050;-85
2021/09/13 14:02:29;;;;;;;10.82;7.97;;;;;;;;;;5019598;28;20084;-84
2021/09/13 14:04:56;;;;;;;11.38;8.18;;;;;;;;;;5021064;28;20653;-84
2021/09/13 14:07:23;;;;;;;11.13;7.50;;;;;;;;;;5020922;28;20412;-84
2021/09/13 14:09:50;;;;;;;9.30;7.35;;;;;;;;;;5059162;22;20091;-79
2021/09/13 14:12:17;;;;;;;8.57;6.50;;;;;;;;;;5037397;28;20131;-80
2021/09/13 14:14:43;;;;;;;16.08;10.13;;;;;;;;;;5039377;28;20049;-78
2021/09/13 14:17:10;;;;;;;12.80;11.50;;;;;;;;;;5044110;28;20049;-78
2021/09/13 14:19:38;;;;;;;11.65;8.20;;;;;;;;;;5036260;28;20054;-80
2021/09/13 14:22:05;;;;;;;8.90;6.90;;;;;;;;;;5023862;28;20100;-78
2021/09/13 14:24:32;;;;;;;11.63;6.63;;;;;;;;;;5026220;28;20111;-79
2021/09/13 14:26:59;;;;;;;8.38;6.45;;;;;;;;;;5024273;28;20046;-78
2021/09/13 14:29:25;;;;;;;7.97;6.55;;;;;;;;;;5024608;28;20045;-78
2021/09/13 14:31:52;;;;;;;8.27;6.88;;;;;;;;;;5026489;28;20045;-78
2021/09/13 14:34:19;;;;;;;7.90;6.18;;;;;;;;;;5028478;28;20096;-79